createdAt,value
2023-05-24T00:01:04.798Z,8.76
2023-05-24T00:03:35.059Z,8.79
2023-05-24T00:06:03.917Z,8.66
2023-05-24T00:08:32.154Z,8.65
2023-05-24T00:11:01.779Z,8.61
2023-05-24T00:13:30.154Z,8.52
2023-05-24T00:15:58.383Z,8.52
2023-05-24T00:18:26.630Z,8.49
2023-05-24T00:20:57.218Z,8.45
2023-05-24T00:23:25.771Z,8.44
2023-05-24T00:25:57.597Z,8.34
2023-05-24T00:28:27.201Z,8.33
2023-05-24T00:30:55.488Z,8.37
2023-05-24T00:33:24.356Z,8.26
2023-05-24T00:35:56.442Z,8.23
2023-05-24T00:38:25.247Z,8.22
2023-05-24T00:40:56.393Z,8.22
2023-05-24T00:43:25.100Z,8.21
2023-05-24T00:46:13.327Z,8.09
2023-05-24T00:48:42.095Z,8.12
2023-05-24T00:51:10.640Z,8.05
2023-05-24T00:53:39.083Z,8.04
2023-05-24T00:56:08.546Z,7.99
2023-05-24T00:58:37.176Z,7.94
2023-05-24T01:01:07.071Z,7.90
2023-05-24T01:03:36.278Z,7.88
2023-05-24T01:06:08.344Z,7.82
2023-05-24T01:09:09.411Z,7.82
2023-05-24T01:11:48.814Z,7.85
2023-05-24T01:14:23.805Z,7.88
2023-05-24T01:16:58.101Z,7.77
2023-05-24T01:19:44.908Z,7.79
2023-05-24T01:22:25.723Z,7.69
2023-05-24T01:25:04.637Z,7.64
2023-05-24T01:27:35.647Z,7.64
2023-05-24T01:30:04.782Z,7.54
2023-05-24T01:32:33.734Z,7.55
2023-05-24T01:35:02.012Z,7.50
2023-05-24T01:37:30.279Z,7.54
2023-05-24T01:39:58.955Z,7.54
2023-05-24T01:42:28.702Z,7.52
2023-05-24T01:45:05.720Z,7.56
2023-05-24T01:47:46.979Z,7.42
2023-05-24T01:50:23.804Z,7.41
2023-05-24T01:52:54.650Z,7.33
2023-05-24T01:55:23.799Z,7.33
2023-05-24T01:57:52.808Z,7.38
2023-05-24T02:00:23.577Z,7.44
2023-05-24T02:02:55.584Z,7.34
2023-05-24T02:05:24.625Z,7.30
2023-05-24T02:07:54.625Z,7.13
2023-05-24T02:10:26.563Z,7.15
2023-05-24T02:12:54.852Z,7.19
2023-05-24T02:15:24.676Z,7.25
2023-05-24T02:17:54.738Z,7.24
2023-05-24T02:20:23.931Z,7.22
2023-05-24T02:22:52.293Z,7.15
2023-05-24T02:25:20.803Z,7.20
2023-05-24T02:27:49.332Z,7.13
2023-05-24T02:30:17.622Z,7.11
2023-05-24T02:32:47.292Z,7.09
2023-05-24T02:35:15.744Z,6.97
2023-05-24T02:37:44.067Z,6.95
2023-05-24T02:40:13.470Z,6.90
2023-05-24T02:42:41.874Z,6.90
2023-05-24T02:45:10.813Z,7.01
2023-05-24T02:47:39.217Z,6.93
2023-05-24T02:50:10.069Z,6.80
2023-05-24T02:52:38.450Z,6.79
2023-05-24T02:55:08.569Z,6.78
2023-05-24T02:57:37.914Z,6.75
2023-05-24T03:00:09.182Z,6.91
2023-05-24T03:02:38.821Z,6.84
2023-05-24T03:05:09.494Z,6.66
2023-05-24T03:07:37.713Z,6.60
2023-05-24T03:10:08.811Z,6.57
2023-05-24T03:12:37.206Z,6.54
2023-05-24T03:15:06.194Z,6.55
2023-05-24T03:17:34.482Z,6.50
2023-05-24T03:20:02.898Z,6.50
2023-05-24T03:22:34.279Z,6.46
2023-05-24T03:25:04.622Z,6.49
2023-05-24T03:27:32.916Z,6.51
2023-05-24T03:30:01.152Z,6.55
2023-05-24T03:32:32.636Z,6.45
2023-05-24T03:35:01.633Z,6.38
2023-05-24T03:37:30.426Z,6.44
2023-05-24T03:40:00.026Z,6.44
2023-05-24T03:42:51.695Z,6.41
2023-05-24T03:45:34.458Z,6.39
2023-05-24T03:48:06.794Z,6.40
2023-05-24T03:50:35.902Z,6.51
2023-05-24T03:53:04.255Z,6.53
2023-05-24T03:55:34.051Z,6.61
2023-05-24T03:58:02.304Z,6.50
2023-05-24T04:00:30.670Z,6.42
2023-05-24T04:03:00.261Z,6.56
2023-05-24T04:05:30.392Z,6.52
2023-05-24T04:07:58.733Z,6.57
2023-05-24T04:10:37.266Z,6.60
2023-05-24T04:13:05.514Z,6.67
2023-05-24T04:15:38.040Z,6.82
2023-05-24T04:18:06.722Z,6.80
2023-05-24T04:20:36.535Z,6.93
2023-05-24T04:23:04.808Z,6.84
2023-05-24T04:25:33.518Z,6.89
2023-05-24T04:28:03.957Z,6.93
2023-05-24T04:30:33.862Z,6.97
2023-05-24T04:33:02.251Z,7.07
2023-05-24T04:35:31.349Z,7.17
2023-05-24T04:38:00.225Z,7.17
2023-05-24T04:40:28.524Z,7.11
2023-05-24T04:42:59.505Z,7.27
2023-05-24T04:45:30.783Z,7.53
2023-05-24T04:47:59.059Z,7.75
2023-05-24T04:50:27.323Z,7.76
2023-05-24T04:52:55.540Z,7.87
2023-05-24T04:55:23.853Z,7.98
2023-05-24T04:57:52.097Z,8.06
2023-05-24T05:00:21.393Z,7.93
2023-05-24T05:02:51.398Z,8.14
2023-05-24T05:05:20.182Z,8.26
2023-05-24T05:07:48.475Z,8.36
2023-05-24T05:10:16.825Z,8.36
2023-05-24T05:12:45.048Z,8.35
2023-05-24T05:15:13.677Z,8.55
2023-05-24T05:17:42.202Z,8.48
2023-05-24T05:20:12.067Z,8.61
2023-05-24T05:22:40.460Z,8.65
2023-05-24T05:25:09.406Z,8.78
2023-05-24T05:27:37.616Z,8.81
2023-05-24T05:30:06.949Z,9.02
2023-05-24T05:32:35.640Z,9.11
2023-05-24T05:35:03.975Z,9.27
2023-05-24T05:37:33.672Z,9.23
2023-05-24T05:40:01.922Z,9.19
2023-05-24T05:42:30.171Z,9.31
2023-05-24T05:44:58.678Z,9.41
2023-05-24T05:47:26.998Z,9.72
2023-05-24T05:49:55.366Z,10.03
2023-05-24T05:52:23.676Z,10.27
2023-05-24T05:54:53.293Z,10.68
2023-05-24T05:57:24.267Z,10.87
2023-05-24T05:59:52.893Z,11.02
2023-05-24T06:02:22.956Z,11.45
2023-05-24T06:04:51.551Z,11.57
2023-05-24T06:07:20.127Z,11.63
2023-05-24T06:09:48.388Z,11.86
2023-05-24T06:12:18.144Z,12.13
2023-05-24T06:14:48.364Z,12.19
2023-05-24T06:17:16.628Z,12.18
2023-05-24T06:19:44.871Z,11.98
2023-05-24T06:22:13.145Z,11.61
2023-05-24T06:24:41.381Z,11.59
2023-05-24T06:27:09.616Z,11.47
2023-05-24T06:29:39.548Z,11.49
2023-05-24T06:32:08.032Z,11.37
2023-05-24T06:34:36.243Z,11.66
2023-05-24T06:37:04.834Z,11.70
2023-05-24T06:39:33.054Z,11.88
2023-05-24T06:42:01.952Z,11.79
2023-05-24T06:44:34.567Z,11.69
2023-05-24T06:47:05.871Z,11.89
2023-05-24T06:49:34.538Z,11.88
2023-05-24T06:52:02.826Z,11.71
2023-05-24T06:54:31.070Z,11.86
2023-05-24T06:56:59.313Z,12.11
2023-05-24T06:59:28.291Z,12.18
2023-05-24T07:01:58.903Z,12.01
2023-05-24T07:04:29.812Z,12.05
2023-05-24T07:06:58.503Z,12.25
2023-05-24T07:09:27.000Z,12.53
2023-05-24T07:11:55.267Z,13.14
2023-05-24T07:14:25.954Z,13.51
2023-05-24T07:16:57.508Z,13.38
2023-05-24T07:19:29.347Z,13.79
2023-05-24T07:21:59.366Z,13.75
2023-05-24T07:24:27.645Z,13.45
2023-05-24T07:26:56.791Z,13.51
2023-05-24T07:29:26.078Z,13.46
2023-05-24T07:31:56.699Z,13.49
2023-05-24T07:34:27.624Z,13.40
2023-05-24T07:36:56.069Z,13.65
2023-05-24T07:39:27.321Z,13.47
2023-05-24T07:41:55.784Z,13.55
2023-05-24T07:44:24.430Z,14.12
2023-05-24T07:46:52.714Z,14.29
2023-05-24T07:49:21.099Z,14.11
2023-05-24T07:51:49.689Z,14.57
2023-05-24T07:54:17.920Z,14.67
2023-05-24T07:56:47.488Z,14.65
2023-05-24T07:59:15.948Z,14.14
2023-05-24T08:01:44.372Z,13.99
2023-05-24T08:04:12.630Z,14.15
2023-05-24T08:06:41.012Z,14.00
2023-05-24T08:09:10.004Z,14.13
2023-05-24T08:11:38.231Z,14.08
2023-05-24T08:14:07.998Z,14.10
2023-05-24T08:16:36.425Z,14.07
2023-05-24T08:19:04.696Z,14.14
2023-05-24T08:21:33.861Z,14.27
2023-05-24T08:24:02.128Z,15.06
2023-05-24T08:26:30.445Z,14.59
2023-05-24T08:28:58.673Z,14.88
2023-05-24T08:31:28.313Z,14.87
2023-05-24T08:33:57.735Z,15.09
2023-05-24T08:36:26.127Z,15.25
2023-05-24T08:38:54.421Z,15.11
2023-05-24T08:41:22.711Z,14.89
2023-05-24T08:43:51.648Z,14.72
2023-05-24T08:46:20.143Z,14.55
2023-05-24T08:48:49.939Z,14.60
2023-05-24T08:51:18.380Z,14.97
2023-05-24T08:53:50.106Z,15.23
2023-05-24T08:56:19.429Z,14.94
2023-05-24T08:58:47.762Z,15.25
2023-05-24T09:01:17.801Z,14.49
2023-05-24T09:03:47.893Z,14.77
2023-05-24T09:06:19.314Z,14.94
2023-05-24T09:08:50.278Z,14.96
2023-05-24T09:11:19.604Z,15.24
2023-05-24T09:13:49.335Z,15.61
2023-05-24T09:16:17.878Z,15.52
2023-05-24T09:18:46.232Z,15.60
2023-05-24T09:21:14.840Z,15.67
2023-05-24T09:23:45.930Z,15.19
2023-05-24T09:26:14.623Z,15.00
2023-05-24T09:28:44.269Z,14.87
2023-05-24T09:31:13.873Z,14.98
2023-05-24T09:33:42.227Z,15.36
2023-05-24T09:36:11.795Z,15.44
2023-05-24T09:38:40.004Z,15.42
2023-05-24T09:41:11.031Z,15.72
2023-05-24T09:43:49.525Z,15.16
2023-05-24T09:46:19.096Z,14.97
2023-05-24T09:48:57.734Z,15.52
2023-05-24T09:51:26.425Z,16.36
2023-05-24T09:53:58.404Z,16.50
2023-05-24T09:56:28.274Z,16.37
2023-05-24T09:58:57.150Z,16.58
2023-05-24T10:01:26.878Z,16.94
2023-05-24T10:03:56.383Z,16.62
2023-05-24T10:06:25.112Z,16.14
2023-05-24T10:08:54.841Z,16.06
2023-05-24T10:11:23.068Z,16.80
2023-05-24T10:13:52.908Z,17.06
2023-05-24T10:16:21.600Z,17.09
2023-05-24T10:18:50.828Z,17.62
2023-05-24T10:21:22.759Z,17.39
2023-05-24T10:23:53.665Z,16.20
2023-05-24T10:26:26.228Z,16.35
2023-05-24T10:29:01.177Z,17.34
2023-05-24T10:31:32.525Z,17.14
2023-05-24T10:34:08.001Z,17.17
2023-05-24T10:36:39.984Z,16.89
2023-05-24T10:39:12.498Z,17.67
2023-05-24T10:41:42.203Z,18.04
2023-05-24T10:44:19.699Z,17.75
2023-05-24T10:47:10.828Z,17.91
2023-05-24T10:49:40.215Z,17.77
2023-05-24T10:52:10.134Z,17.54
2023-05-24T10:54:44.695Z,17.81
2023-05-24T10:57:24.566Z,17.35
2023-05-24T10:59:58.450Z,17.33
2023-05-24T11:02:29.953Z,17.76
2023-05-24T11:05:00.351Z,17.14
2023-05-24T11:07:28.813Z,17.38
2023-05-24T11:09:59.860Z,17.44
2023-05-24T11:12:34.641Z,17.53
2023-05-24T11:15:04.698Z,17.60
2023-05-24T11:18:12.817Z,17.11
2023-05-24T11:20:44.646Z,16.65
2023-05-24T11:23:13.298Z,16.98
2023-05-24T11:25:41.872Z,17.81
2023-05-24T11:28:12.014Z,18.08
2023-05-24T11:30:42.502Z,17.98
2023-05-24T11:33:18.732Z,17.20
2023-05-24T11:35:47.336Z,17.03
2023-05-24T11:38:17.096Z,16.96
2023-05-24T11:40:47.052Z,18.59
2023-05-24T11:43:16.792Z,18.48
2023-05-24T11:45:48.778Z,18.21
2023-05-24T11:48:17.646Z,17.88
2023-05-24T11:50:49.699Z,17.70
2023-05-24T11:53:20.480Z,18.08
2023-05-24T11:55:48.841Z,19.41
2023-05-24T11:58:24.519Z,19.13
2023-05-24T12:00:54.137Z,18.39
2023-05-24T12:03:22.474Z,17.72
2023-05-24T12:05:51.422Z,17.68
2023-05-24T12:08:20.468Z,18.32
2023-05-24T12:10:51.741Z,18.17
2023-05-24T12:13:23.212Z,18.92
2023-05-24T12:15:56.575Z,18.27
2023-05-24T12:18:26.848Z,18.05
2023-05-24T12:20:55.354Z,18.77
2023-05-24T12:23:25.786Z,18.64
2023-05-24T12:25:59.862Z,17.95
2023-05-24T12:28:28.561Z,17.68
2023-05-24T12:30:58.931Z,17.64
2023-05-24T12:33:27.267Z,17.74
2023-05-24T12:35:56.301Z,17.92
2023-05-24T12:38:26.183Z,19.07
2023-05-24T12:41:11.599Z,18.87
2023-05-24T12:43:44.423Z,18.22
2023-05-24T12:46:14.400Z,18.40
2023-05-24T12:48:43.085Z,19.33
2023-05-24T12:51:11.895Z,19.01
2023-05-24T12:53:40.400Z,19.29
2023-05-24T12:56:09.284Z,19.27
2023-05-24T12:58:37.571Z,19.07
2023-05-24T13:01:05.944Z,18.99
2023-05-24T13:03:36.173Z,18.15
2023-05-24T13:06:04.607Z,17.96
2023-05-24T13:08:32.838Z,18.13
2023-05-24T13:11:01.110Z,18.15
2023-05-24T13:13:29.780Z,18.44
2023-05-24T13:15:58.248Z,19.08
2023-05-24T13:18:27.212Z,18.77
2023-05-24T13:20:57.736Z,19.20
2023-05-24T13:23:26.352Z,18.93
2023-05-24T13:25:54.731Z,18.77
2023-05-24T13:28:23.298Z,19.36
2023-05-24T13:30:51.726Z,19.18
2023-05-24T13:33:20.442Z,18.95
2023-05-24T13:35:49.704Z,18.83
2023-05-24T13:38:19.448Z,18.82
2023-05-24T13:40:48.324Z,19.37
2023-05-24T13:43:16.946Z,19.68
2023-05-24T13:45:45.599Z,20.10
2023-05-24T13:48:14.232Z,21.32
2023-05-24T13:50:42.877Z,20.78
2023-05-24T13:53:11.373Z,19.39
2023-05-24T13:55:41.050Z,19.12
2023-05-24T13:58:09.382Z,19.29
2023-05-24T14:00:37.709Z,19.90
2023-05-24T14:03:06.460Z,19.14
2023-05-24T14:05:35.144Z,19.59
2023-05-24T14:08:06.914Z,18.73
2023-05-24T14:10:36.899Z,18.95
2023-05-24T14:15:39.121Z,18.34
2023-05-24T14:18:08.648Z,18.17
2023-05-24T14:20:38.123Z,18.19
2023-05-24T14:23:08.032Z,18.81
2023-05-24T14:25:36.517Z,20.12
2023-05-24T14:28:08.520Z,20.71
2023-05-24T14:30:38.181Z,19.92
2023-05-24T14:33:08.360Z,19.54
2023-05-24T14:35:39.976Z,20.83
2023-05-24T14:38:10.085Z,19.98
2023-05-24T14:40:40.113Z,19.20
2023-05-24T14:43:10.801Z,20.73
2023-05-24T14:45:41.264Z,21.22
2023-05-24T14:48:12.349Z,21.61
2023-05-24T14:50:42.176Z,21.39
2023-05-24T14:53:12.403Z,21.93
2023-05-24T14:55:43.132Z,22.03
2023-05-24T14:58:14.151Z,22.81
2023-05-24T15:00:43.962Z,22.51
2023-05-24T15:03:14.585Z,23.06
2023-05-24T15:05:43.637Z,22.94
2023-05-24T15:08:12.218Z,23.71
2023-05-24T15:10:41.023Z,22.78
2023-05-24T15:13:09.547Z,22.44
2023-05-24T15:15:39.342Z,23.32
2023-05-24T15:18:08.218Z,22.90
2023-05-24T15:20:36.785Z,21.78
2023-05-24T15:23:05.268Z,19.90
2023-05-24T15:25:33.517Z,20.31
2023-05-24T15:28:02.050Z,22.13
2023-05-24T15:30:30.310Z,22.56
2023-05-24T15:32:59.926Z,22.24
2023-05-24T15:35:28.264Z,20.19
2023-05-24T15:37:56.538Z,21.73
2023-05-24T15:40:25.037Z,22.27
2023-05-24T15:42:53.991Z,21.52
2023-05-24T15:45:22.393Z,20.26
2023-05-24T15:47:50.923Z,20.37
2023-05-24T15:50:31.844Z,19.22
2023-05-24T15:53:09.250Z,19.60
2023-05-24T15:55:39.076Z,19.72
2023-05-24T15:58:07.463Z,19.90
2023-05-24T16:00:35.728Z,19.97
2023-05-24T16:03:04.150Z,19.88
2023-05-24T16:05:33.890Z,19.03
2023-05-24T16:08:02.602Z,18.99
2023-05-24T16:10:31.021Z,19.66
2023-05-24T16:12:59.710Z,19.12
2023-05-24T16:15:30.085Z,18.62
2023-05-24T16:17:58.614Z,18.57
2023-05-24T16:20:26.942Z,19.06
2023-05-24T16:22:56.539Z,21.44
2023-05-24T16:25:25.840Z,22.08
2023-05-24T16:27:56.374Z,24.02
2023-05-24T16:30:25.612Z,23.03
2023-05-24T16:32:54.171Z,22.38
2023-05-24T16:35:25.471Z,20.96
2023-05-24T16:37:55.986Z,18.80
2023-05-24T16:40:25.710Z,19.45
2023-05-24T16:42:54.425Z,19.79
2023-05-24T16:45:22.711Z,18.92
2023-05-24T16:47:51.213Z,18.22
2023-05-24T16:50:19.567Z,17.46
2023-05-24T16:52:48.519Z,17.85
2023-05-24T16:55:17.108Z,17.51
2023-05-24T16:57:46.740Z,17.46
2023-05-24T17:00:16.651Z,17.70
2023-05-24T17:02:45.173Z,17.68
2023-05-24T17:05:16.867Z,17.79
2023-05-24T17:07:45.579Z,18.88
2023-05-24T17:10:13.924Z,19.43
2023-05-24T17:12:42.401Z,18.92
2023-05-24T17:15:12.993Z,18.70
2023-05-24T17:17:41.360Z,18.69
2023-05-24T17:20:10.555Z,18.55
2023-05-24T17:22:38.921Z,18.33
2023-05-24T17:25:08.419Z,17.96
2023-05-24T17:27:36.761Z,17.46
2023-05-24T17:30:06.319Z,17.77
2023-05-24T17:32:36.040Z,17.56
2023-05-24T17:35:04.645Z,17.65
2023-05-24T17:37:32.850Z,17.28
2023-05-24T17:40:01.112Z,17.05
2023-05-24T17:42:29.582Z,16.88
2023-05-24T17:44:57.852Z,16.85
2023-05-24T17:47:26.171Z,16.91
2023-05-24T17:49:55.849Z,16.84
2023-05-24T17:52:24.081Z,16.45
2023-05-24T17:54:52.344Z,16.41
2023-05-24T17:57:20.729Z,16.36
2023-05-24T17:59:49.072Z,16.25
2023-05-24T18:02:17.357Z,16.25
2023-05-24T18:04:45.752Z,16.20
2023-05-24T18:07:15.841Z,16.11
2023-05-24T18:09:44.096Z,16.00
2023-05-24T18:12:12.773Z,15.96
2023-05-24T18:14:41.783Z,15.82
2023-05-24T18:17:10.169Z,15.85
2023-05-24T18:19:38.721Z,15.82
2023-05-24T18:22:07.045Z,15.77
2023-05-24T18:24:36.730Z,15.76
2023-05-24T18:27:05.327Z,15.83
2023-05-24T18:29:34.542Z,15.75
2023-05-24T18:32:02.893Z,15.73
2023-05-24T18:34:31.323Z,15.68
2023-05-24T18:36:59.610Z,15.65
2023-05-24T18:39:27.918Z,15.67
2023-05-24T18:41:57.630Z,15.68
2023-05-24T18:44:25.931Z,15.72
2023-05-24T18:46:56.127Z,15.66
2023-05-24T18:49:24.717Z,15.73
2023-05-24T18:51:53.048Z,15.68
2023-05-24T18:54:21.384Z,15.72
2023-05-24T18:56:49.756Z,15.61
2023-05-24T18:59:21.655Z,15.65
2023-05-24T19:01:49.990Z,15.53
2023-05-24T19:04:18.383Z,15.65
2023-05-24T19:06:46.673Z,15.55
2023-05-24T19:09:15.061Z,15.62
2023-05-24T19:11:45.638Z,15.54
2023-05-24T19:14:17.744Z,15.56
2023-05-24T19:16:47.769Z,15.51
2023-05-24T19:19:16.200Z,15.53
2023-05-24T19:21:44.421Z,15.45
2023-05-24T19:24:12.628Z,15.53
2023-05-24T19:26:40.919Z,15.58
2023-05-24T19:29:09.170Z,15.12
2023-05-24T19:31:37.444Z,15.14
2023-05-24T19:34:09.893Z,15.11
2023-05-24T19:37:01.335Z,15.08
2023-05-24T19:39:29.754Z,14.88
2023-05-24T19:41:57.990Z,14.91
2023-05-24T19:44:26.320Z,14.72
2023-05-24T19:46:54.676Z,14.63
2023-05-24T19:49:24.341Z,14.51
2023-05-24T19:51:52.986Z,14.40
2023-05-24T19:54:21.544Z,14.42
2023-05-24T19:56:51.933Z,14.28
2023-05-24T19:59:20.450Z,14.37
2023-05-24T20:01:48.757Z,14.34
2023-05-24T20:04:17.163Z,14.25
2023-05-24T20:06:46.829Z,14.10
2023-05-24T20:09:18.762Z,14.17
2023-05-24T20:11:47.276Z,14.10
2023-05-24T20:14:15.653Z,14.06
2023-05-24T20:16:44.095Z,13.94
2023-05-24T20:19:13.361Z,13.90
2023-05-24T20:21:41.609Z,13.78
2023-05-24T20:24:11.267Z,13.85
2023-05-24T20:26:39.561Z,13.52
2023-05-24T20:29:07.836Z,13.53
2023-05-24T20:31:37.416Z,13.55
2023-05-24T20:34:05.786Z,13.56
2023-05-24T20:36:34.036Z,13.53
2023-05-24T20:39:02.368Z,13.60
2023-05-24T20:41:32.350Z,13.47
2023-05-24T20:44:00.656Z,13.66
2023-05-24T20:46:29.139Z,13.50
2023-05-24T20:48:57.687Z,13.51
2023-05-24T20:51:25.961Z,13.55
2023-05-24T20:53:54.246Z,13.43
2023-05-24T20:56:24.045Z,13.25
2023-05-24T20:58:54.363Z,13.34
2023-05-24T21:01:23.166Z,13.12
2023-05-24T21:03:51.476Z,13.19
2023-05-24T21:06:20.845Z,13.25
2023-05-24T21:08:49.196Z,13.23
2023-05-24T21:11:17.500Z,13.20
2023-05-24T21:13:46.402Z,13.00
2023-05-24T21:16:16.186Z,12.95
2023-05-24T21:18:44.466Z,13.12
2023-05-24T21:21:13.007Z,13.15
2023-05-24T21:23:41.266Z,13.10
2023-05-24T21:26:09.738Z,13.17
2023-05-24T21:28:38.150Z,13.06
2023-05-24T21:31:07.998Z,12.97
2023-05-24T21:33:39.645Z,13.07
2023-05-24T21:36:08.361Z,12.97
2023-05-24T21:38:36.584Z,12.86
2023-05-24T21:41:05.834Z,12.87
2023-05-24T21:43:34.164Z,12.81
2023-05-24T21:46:02.395Z,12.78
2023-05-24T21:48:30.670Z,12.75
2023-05-24T21:51:00.305Z,12.70
2023-05-24T21:53:28.645Z,12.56
2023-05-24T21:55:57.417Z,12.49
2023-05-24T21:58:26.298Z,12.51
2023-05-24T22:00:55.658Z,12.48
2023-05-24T22:03:26.911Z,12.50
2023-05-24T22:05:55.263Z,12.55
2023-05-24T22:08:24.933Z,12.40
2023-05-24T22:10:53.274Z,12.53
2023-05-24T22:13:21.531Z,12.53
2023-05-24T22:15:49.949Z,12.61
2023-05-24T22:18:18.708Z,12.51
2023-05-24T22:20:47.132Z,12.50
2023-05-24T22:23:15.846Z,12.48
2023-05-24T22:25:45.564Z,12.48
2023-05-24T22:28:14.312Z,12.59
2023-05-24T22:30:42.542Z,12.72
2023-05-24T22:33:10.790Z,12.73
2023-05-24T22:35:39.026Z,12.66
2023-05-24T22:38:07.321Z,12.73
2023-05-24T22:40:36.740Z,12.75
2023-05-24T22:43:06.348Z,12.77
2023-05-24T22:45:34.623Z,12.69
2023-05-24T22:48:03.390Z,12.59
2023-05-24T22:50:32.277Z,12.70
2023-05-24T22:53:00.563Z,12.77
2023-05-24T22:55:28.843Z,12.75
2023-05-24T22:57:57.035Z,12.70
2023-05-24T23:00:26.653Z,12.70
2023-05-24T23:02:55.124Z,12.66
2023-05-24T23:05:24.108Z,12.76
2023-05-24T23:07:52.599Z,12.75
2023-05-24T23:10:20.936Z,12.74
2023-05-24T23:12:49.144Z,12.78
2023-05-24T23:15:18.264Z,12.77
2023-05-24T23:17:48.246Z,12.78
2023-05-24T23:20:16.661Z,12.78
2023-05-24T23:22:44.879Z,12.76
2023-05-24T23:25:13.306Z,12.67
2023-05-24T23:27:41.952Z,12.64
2023-05-24T23:30:11.046Z,12.60
2023-05-24T23:32:39.346Z,12.55
2023-05-24T23:35:09.931Z,12.51
2023-05-24T23:37:38.202Z,12.59
2023-05-24T23:40:07.475Z,12.56
2023-05-24T23:42:36.345Z,12.58
2023-05-24T23:45:05.110Z,12.48
2023-05-24T23:47:33.523Z,12.51
2023-05-24T23:50:01.789Z,12.41
2023-05-24T23:52:31.443Z,12.29
2023-05-24T23:54:59.717Z,12.36
2023-05-24T23:57:30.863Z,12.31
2023-05-24T23:59:59.051Z,12.31
